KILM/ILM METAR and TAF weather

Enter ICAO airport designator
Station Type Date Time Source
KILM METAR 2022/06/25 22:53 UTC NOAA

KILM 252253Z 10010KT 10SM CLR 28/19 A3010 RMK AO2 SLP192 T02780189


Station Type Date Time Source
KILM Decoded METAR 2022/06/25 22:53 UTC NOAA

WILMINGTON INT'L AIRPORT, NC, United States (KILM) 34-16N 077-54W 9M
Jun 25, 2022 - 06:53 PM EDT / 2022.06.25 2253 UTC
Wind: from the E (100 degrees) at 12 MPH (10 KT):0
Visibility: 10 mile(s):0
Sky conditions: clear
Temperature: 82.0 F (27.8 C)
Dew Point: 66.0 F (18.9 C)
Relative Humidity: 58%
Pressure (altimeter): 30.1 in. Hg (1019 hPa)
ob: KILM 252253Z 10010KT 10SM CLR 28/19 A3010 RMK AO2 SLP192 T02780189
cycle: 23

Station Type Date Time Source
KILM TAF 2022/06/25 18:27 UTC NOAA

TAF KILM 251725Z 2518/2618 09008KT P6SM SKC
FM260500 00000KT P6SM SKC

Example: see airport list